Terminal Aerodrome Forecast
Issued by NWS

Home | Current Version | Previous Version | Text Only | Print | Product List | Glossary On
Versions: 1 2 3 4 5 6 7 8 9 10 11 12 13 14 15 16 17 18 19 20
000
FTUS43 KDLH 310533
TAFHYR
TAF
KHYR 310533Z 3106/0106 22003KT P6SM FEW060 WS020/31030KT
     FM311100 25004KT P6SM SCT080
     FM311600 28011G17KT P6SM SCT070
     FM010100 30008KT P6SM SCT080=

USA.gov is the U.S. government's official web portal to all federal, state and local government web resources and services.